Time;durP1;ratioP1;P1;durP2;ratioP2;P2;SDS_P1;SDS_P2;PMS_P1;PMS_P2;Temp;Humidity;BMP_temperature;BMP_pressure;BME280_temperature;BME280_humidity;BME280_pressure;Samples;Min_cycle;Max_cycle;Signal;HPM_P1;HPM_P2
2023/01/26 00:00:20;;;;;;;8.30;7.30;;;8.90;99.90;;;;;;5043652;28;20183;-72
2023/01/26 00:02:48;;;;;;;9.67;7.60;;;8.90;99.90;;;;;;5061523;28;20198;-72
2023/01/26 00:05:18;;;;;;;10.77;7.20;;;8.90;99.90;;;;;;5049161;28;20201;-72
2023/01/26 00:07:47;;;;;;;11.13;7.43;;;8.90;99.90;;;;;;5065944;28;20199;-72
2023/01/26 00:10:25;;;;;;;8.17;7.00;;;8.90;99.90;;;;;;5043950;28;20264;-72
2023/01/26 00:12:52;;;;;;;7.27;6.30;;;8.90;99.90;;;;;;5059894;28;20198;-72
2023/01/26 00:15:19;;;;;;;10.10;7.47;;;8.80;99.90;;;;;;5062544;28;20206;-72
2023/01/26 00:17:51;;;;;;;7.53;6.70;;;8.90;99.90;;;;;;5062583;28;20555;-72
2023/01/26 00:20:20;;;;;;;10.93;6.90;;;8.90;99.90;;;;;;5051071;28;20190;-72
2023/01/26 00:22:58;;;;;;;8.07;7.17;;;8.90;99.90;;;;;;5065965;28;20237;-72
2023/01/26 00:25:24;;;;;;;8.10;6.90;;;8.80;99.90;;;;;;5059983;28;20182;-72
2023/01/26 00:27:54;;;;;;;8.77;7.10;;;8.90;99.90;;;;;;5041396;28;20197;-72
2023/01/26 00:30:26;;;;;;;9.67;7.13;;;8.90;99.90;;;;;;5056885;28;20182;-72
2023/01/26 00:32:56;;;;;;;9.03;7.47;;;8.90;99.90;;;;;;5054970;28;20595;-72
2023/01/26 00:35:31;;;;;;;9.60;7.30;;;8.90;99.90;;;;;;5027167;28;20252;-72
2023/01/26 00:38:13;;;;;;;9.43;7.13;;;8.90;99.90;;;;;;5079353;28;20197;-72
2023/01/26 00:40:50;;;;;;;10.53;7.30;;;8.90;99.90;;;;;;5065104;28;20256;-72
2023/01/26 00:43:20;;;;;;;9.23;7.40;;;8.90;99.90;;;;;;5060524;28;20208;-72
2023/01/26 00:45:48;;;;;;;10.67;7.07;;;8.90;99.90;;;;;;5043840;28;20672;-72
2023/01/26 00:48:23;;;;;;;9.83;7.00;;;8.90;99.90;;;;;;5065455;28;20277;-72
2023/01/26 00:50:55;;;;;;;8.90;7.07;;;8.90;99.90;;;;;;5051580;28;20278;-72
2023/01/26 00:53:26;;;;;;;8.63;6.97;;;8.90;99.90;;;;;;5048366;28;20682;-72
2023/01/26 00:56:08;;;;;;;;;;;;;;;;;;;;;
2023/01/26 00:58:34;;;;;;;10.43;7.33;;;8.90;99.90;;;;;;5050305;28;20285;-72
2023/01/26 01:01:00;;;;;;;8.33;6.17;;;8.90;99.90;;;;;;5048504;28;20194;-75
2023/01/26 01:03:31;;;;;;;7.57;6.47;;;8.90;99.90;;;;;;5062721;28;20198;-75
2023/01/26 01:05:58;;;;;;;7.63;6.77;;;8.90;99.90;;;;;;5048193;28;20234;-75
2023/01/26 01:08:28;;;;;;;7.87;7.07;;;9.00;99.90;;;;;;5048609;28;20205;-75
2023/01/26 01:11:14;;;;;;;7.77;6.73;;;8.90;99.90;;;;;;5046951;28;20206;-75
2023/01/26 01:13:41;;;;;;;10.10;6.70;;;8.90;99.90;;;;;;5054861;28;20187;-75
2023/01/26 01:16:20;;;;;;;10.53;6.50;;;8.90;99.90;;;;;;5059857;28;20203;-75
2023/01/26 01:18:53;;;;;;;9.60;6.70;;;8.90;99.90;;;;;;5060720;28;20256;-75
2023/01/26 01:21:31;;;;;;;9.37;7.23;;;8.90;99.90;;;;;;5061342;28;20547;-75
2023/01/26 01:24:02;;;;;;;9.83;6.97;;;8.90;99.90;;;;;;5066952;28;20292;-75
2023/01/26 01:26:34;;;;;;;9.40;7.70;;;8.90;99.90;;;;;;5062707;28;20193;-75
2023/01/26 01:29:06;;;;;;;8.43;7.23;;;8.80;99.90;;;;;;5057475;28;20744;-75
2023/01/26 01:31:32;;;;;;;9.90;6.50;;;8.80;99.90;;;;;;5060185;28;20202;-75
2023/01/26 01:34:02;;;;;;;8.30;6.60;;;8.70;99.90;;;;;;5067845;28;20187;-75
2023/01/26 01:36:41;;;;;;;9.27;7.37;;;8.70;99.90;;;;;;5050832;28;20190;-75
2023/01/26 01:39:15;;;;;;;8.30;6.60;;;8.70;99.90;;;;;;5059025;28;20960;-75
2023/01/26 01:41:42;;;;;;;9.80;6.90;;;8.70;99.90;;;;;;5066802;28;20183;-75
2023/01/26 01:44:19;;;;;;;8.13;6.70;;;8.70;99.90;;;;;;5065736;28;20187;-75
2023/01/26 01:47:25;;;;;;;8.53;6.80;;;8.60;99.90;;;;;;5059275;28;20707;-75
2023/01/26 01:49:54;;;;;;;8.57;6.93;;;8.50;99.90;;;;;;5043155;28;21051;-75
2023/01/26 01:52:31;;;;;;;8.00;6.40;;;8.40;99.90;;;;;;5060483;28;20199;-75
2023/01/26 01:55:19;;;;;;;8.77;7.13;;;8.40;99.90;;;;;;5049439;28;20214;-75
2023/01/26 01:57:59;;;;;;;8.70;6.80;;;8.40;99.90;;;;;;5057358;28;20195;-75
2023/01/26 02:00:35;;;;;;;10.77;6.63;;;8.40;99.90;;;;;;5052396;28;20580;-75
2023/01/26 02:03:10;;;;;;;9.20;6.67;;;8.40;99.90;;;;;;5058427;28;20652;-75
2023/01/26 02:05:47;;;;;;;11.10;7.20;;;8.30;99.90;;;;;;5063915;28;20631;-75
2023/01/26 02:08:32;;;;;;;8.80;6.73;;;8.30;99.90;;;;;;5053707;28;20800;-75
2023/01/26 02:11:47;;;;;;;9.03;7.27;;;8.30;99.90;;;;;;5082082;28;20232;-75
2023/01/26 02:14:21;;;;;;;8.00;6.20;;;8.30;99.90;;;;;;5045630;28;20711;-75
2023/01/26 02:16:51;;;;;;;7.67;6.87;;;8.30;99.90;;;;;;5059669;28;20267;-74
2023/01/26 02:20:02;;;;;;;8.23;7.03;;;8.30;99.90;;;;;;5065044;28;20186;-72
2023/01/26 02:23:12;;;;;;;10.77;7.10;;;8.30;99.90;;;;;;5056286;28;20610;-72
2023/01/26 02:25:45;;;;;;;10.03;6.90;;;8.30;99.90;;;;;;5070934;28;20166;-72
2023/01/26 02:28:26;;;;;;;12.13;7.13;;;8.30;99.90;;;;;;5069480;28;20194;-72
2023/01/26 02:30:58;;;;;;;8.97;7.30;;;8.30;99.90;;;;;;5042369;28;20253;-72
2023/01/26 02:33:33;;;;;;;10.10;7.27;;;8.30;99.90;;;;;;5069938;28;20178;-73
2023/01/26 02:36:03;;;;;;;8.77;7.37;;;8.30;99.90;;;;;;5057434;28;20218;-73
2023/01/26 02:38:47;;;;;;;11.70;7.47;;;8.30;99.90;;;;;;5068572;28;20187;-73
2023/01/26 02:44:32;;;;;;;9.83;7.63;;;8.30;99.90;;;;;;5065034;28;20182;-74
2023/01/26 02:47:14;;;;;;;10.17;7.63;;;8.30;99.90;;;;;;5059555;28;20214;-73
2023/01/26 02:49:52;;;;;;;10.90;7.77;;;8.30;99.90;;;;;;5047166;28;20675;-73
2023/01/26 02:52:32;;;;;;;8.50;7.60;;;8.40;99.90;;;;;;5053122;28;20174;-73
2023/01/26 02:55:26;;;;;;;10.17;7.50;;;8.40;99.90;;;;;;5066414;28;20203;-74
2023/01/26 02:58:00;;;;;;;8.53;7.50;;;8.40;99.90;;;;;;5067251;28;20199;-74
2023/01/26 03:00:40;;;;;;;11.50;8.40;;;8.40;99.90;;;;;;5065414;28;20186;-73
2023/01/26 03:03:17;;;;;;;12.73;8.30;;;8.40;99.90;;;;;;5063452;28;20528;-73
2023/01/26 03:05:46;;;;;;;10.53;9.00;;;8.40;99.90;;;;;;5046683;28;20187;-73
2023/01/26 03:08:13;;;;;;;12.27;9.27;;;8.40;99.90;;;;;;5067864;28;20630;-74
2023/01/26 03:10:46;;;;;;;12.67;9.30;;;8.50;99.90;;;;;;5067221;28;20221;-73
2023/01/26 03:13:14;;;;;;;12.10;9.03;;;8.60;99.90;;;;;;5063727;28;20240;-73
2023/01/26 03:15:51;;;;;;;12.07;9.33;;;8.60;99.90;;;;;;5062640;28;20207;-73
2023/01/26 03:29:46;;;;;;;10.33;8.50;;;8.70;99.90;;;;;;5055049;28;20255;-74
2023/01/26 03:32:13;;;;;;;9.20;7.40;;;8.80;99.90;;;;;;5067791;28;20219;-73
2023/01/26 03:34:44;;;;;;;11.43;8.03;;;8.80;99.90;;;;;;5048715;28;20230;-74
2023/01/26 03:37:22;;;;;;;8.57;7.63;;;8.70;99.90;;;;;;5067804;28;20194;-73
2023/01/26 03:56:34;;;;;;;7.40;5.93;;;8.60;99.90;;;;;;5066166;28;20292;-73
2023/01/26 03:59:14;;;;;;;8.30;6.13;;;8.50;99.90;;;;;;5055795;28;20192;-74
2023/01/26 04:10:07;;;;;;;6.77;5.67;;;8.50;99.90;;;;;;5067736;28;20639;-73
2023/01/26 04:12:41;;;;;;;8.37;5.80;;;8.40;99.90;;;;;;5036435;28;20848;-73
2023/01/26 04:23:30;;;;;;;8.40;5.53;;;8.30;99.90;;;;;;5060647;28;20635;-73
2023/01/26 04:25:56;;;;;;;6.20;5.33;;;8.30;99.90;;;;;;5047764;28;20187;-73
2023/01/26 04:28:24;;;;;;;6.83;5.40;;;8.30;99.90;;;;;;5054477;28;20797;-74
2023/01/26 04:30:57;;;;;;;11.10;5.63;;;8.20;99.90;;;;;;5057512;28;20190;-74
2023/01/26 04:33:31;;;;;;;6.00;5.00;;;8.20;99.90;;;;;;5055909;28;20269;-73
2023/01/26 04:36:10;;;;;;;5.07;4.07;;;8.10;99.90;;;;;;5061937;28;20207;-73
2023/01/26 04:38:42;;;;;;;4.70;4.10;;;7.90;99.90;;;;;;5055912;28;20673;-73
2023/01/26 04:41:17;;;;;;;8.57;4.70;;;7.90;99.90;;;;;;5063484;28;20191;-74
2023/01/26 04:43:46;;;;;;;6.40;4.37;;;7.90;99.90;;;;;;5044166;28;20201;-74
2023/01/26 04:46:14;;;;;;;6.57;4.40;;;8.00;99.90;;;;;;5069701;28;20282;-73
2023/01/26 04:48:48;;;;;;;5.43;4.17;;;8.00;99.90;;;;;;5067457;28;20210;-74
2023/01/26 04:51:22;;;;;;;5.20;4.03;;;8.00;99.90;;;;;;5031179;28;20187;-74
2023/01/26 04:53:49;;;;;;;5.00;4.27;;;7.90;99.90;;;;;;5066380;28;20198;-73
2023/01/26 04:56:35;;;;;;;4.80;3.90;;;7.80;99.90;;;;;;5065979;28;21003;-74
2023/01/26 04:59:09;;;;;;;8.43;4.20;;;7.70;99.90;;;;;;5073271;28;20587;-73
2023/01/26 05:01:41;;;;;;;6.70;4.43;;;7.60;99.90;;;;;;5056365;28;20581;-73
2023/01/26 05:04:11;;;;;;;7.03;4.53;;;7.60;99.90;;;;;;5067152;28;20218;-73
2023/01/26 05:06:44;;;;;;;4.87;4.10;;;7.50;99.90;;;;;;5066208;28;20255;-73
2023/01/26 05:09:22;;;;;;;6.27;4.40;;;7.50;99.90;;;;;;5067178;28;20556;-73
2023/01/26 05:12:32;;;;;;;5.40;4.23;;;7.50;99.90;;;;;;5061952;28;20671;-73
2023/01/26 05:14:45;;;;;;;5.87;4.10;;;7.50;99.90;;;;;;5063685;28;20229;-73
2023/01/26 05:17:12;;;;;;;6.93;4.47;;;7.50;99.90;;;;;;5060077;28;20213;-74
2023/01/26 05:19:46;;;;;;;5.70;4.23;;;7.50;99.90;;;;;;5065021;28;20193;-74
2023/01/26 05:22:13;;;;;;;5.27;4.37;;;7.60;99.90;;;;;;5060409;28;20660;-73
2023/01/26 05:24:40;;;;;;;6.23;4.43;;;7.60;99.90;;;;;;5066664;28;20695;-73
2023/01/26 05:27:20;;;;;;;5.97;4.20;;;7.70;99.90;;;;;;5064135;28;20933;-73
2023/01/26 05:29:54;;;;;;;8.07;4.63;;;7.70;99.90;;;;;;5058648;28;20195;-73
2023/01/26 05:32:26;;;;;;;5.67;4.10;;;7.70;99.90;;;;;;5062585;28;20237;-74
2023/01/26 05:34:54;;;;;;;5.40;4.20;;;7.80;99.90;;;;;;5069045;28;20544;-73
2023/01/26 05:37:31;;;;;;;5.70;4.33;;;7.70;99.90;;;;;;5066345;28;20197;-73
2023/01/26 05:40:02;;;;;;;5.93;4.60;;;7.70;99.90;;;;;;5069555;28;21144;-74
2023/01/26 05:42:34;;;;;;;9.33;4.47;;;7.70;99.90;;;;;;5065789;28;20230;-73
2023/01/26 05:45:00;;;;;;;4.88;4.32;;;7.60;99.90;;;;;;5065717;28;20473;-73
2023/01/26 05:47:35;;;;;;;5.57;4.40;;;7.70;99.90;;;;;;5056443;28;20210;-73
2023/01/26 05:50:14;;;;;;;5.70;4.30;;;7.80;99.90;;;;;;5066366;28;20415;-73
2023/01/26 05:52:46;;;;;;;5.13;4.33;;;7.90;99.90;;;;;;5066189;28;20336;-74
2023/01/26 05:55:21;;;;;;;4.60;4.10;;;8.10;99.90;;;;;;5069959;28;20566;-74
2023/01/26 05:57:48;;;;;;;6.67;3.93;;;8.20;99.90;;;;;;5052780;28;20251;-73
2023/01/26 06:00:15;;;;;;;7.63;4.73;;;8.30;99.90;;;;;;5074431;28;20190;-73
2023/01/26 06:02:42;;;;;;;4.93;3.73;;;8.40;99.90;;;;;;5050874;28;20221;-73
2023/01/26 06:05:15;;;;;;;5.77;4.20;;;8.60;99.90;;;;;;5052187;28;20186;-74
2023/01/26 06:07:41;;;;;;;5.27;4.03;;;8.70;99.90;;;;;;5055312;28;20199;-74
2023/01/26 06:10:18;;;;;;;7.37;4.23;;;8.80;99.90;;;;;;5050836;28;20532;-74
2023/01/26 06:12:46;;;;;;;5.20;4.00;;;8.90;99.90;;;;;;5064526;28;20185;-73
2023/01/26 06:15:15;;;;;;;7.60;4.27;;;9.00;99.90;;;;;;5089709;28;20301;-73
2023/01/26 06:17:43;;;;;;;6.47;4.50;;;9.00;99.90;;;;;;5068900;28;20221;-74
2023/01/26 06:20:11;;;;;;;6.77;4.40;;;9.00;99.90;;;;;;5068030;28;20191;-73
2023/01/26 06:22:39;;;;;;;5.67;4.40;;;9.00;99.90;;;;;;5077911;28;20324;-73
2023/01/26 06:25:08;;;;;;;6.70;3.87;;;9.10;99.90;;;;;;5064277;28;20179;-74
2023/01/26 06:27:40;;;;;;;5.00;4.40;;;9.10;99.90;;;;;;5063047;28;20178;-74
2023/01/26 06:30:13;;;;;;;4.77;4.20;;;9.10;99.90;;;;;;5069581;28;20202;-74
2023/01/26 06:32:39;;;;;;;6.20;4.70;;;9.20;99.90;;;;;;5065818;28;20191;-73
2023/01/26 06:35:08;;;;;;;8.97;5.10;;;9.20;99.90;;;;;;5068674;28;20881;-74
2023/01/26 06:37:35;;;;;;;7.10;4.57;;;9.20;99.90;;;;;;5068829;28;20179;-74
2023/01/26 06:40:12;;;;;;;7.33;4.70;;;9.30;99.90;;;;;;5071638;28;20218;-73
2023/01/26 06:42:47;;;;;;;7.67;4.97;;;9.30;99.90;;;;;;5069528;28;20217;-73
2023/01/26 06:45:21;;;;;;;7.50;4.77;;;9.40;99.90;;;;;;5065548;28;20554;-74
2023/01/26 06:47:50;;;;;;;6.40;4.80;;;9.40;99.90;;;;;;5050103;28;20207;-73
2023/01/26 06:50:30;;;;;;;6.87;4.70;;;9.50;99.90;;;;;;5072315;28;20692;-73
2023/01/26 06:53:02;;;;;;;6.00;4.87;;;9.60;99.90;;;;;;5071640;28;20182;-74
2023/01/26 06:55:43;;;;;;;8.07;5.27;;;9.70;99.90;;;;;;5061566;28;20638;-73
2023/01/26 06:58:11;;;;;;;9.07;5.57;;;9.80;99.90;;;;;;5068687;28;20245;-74
2023/01/26 07:00:38;;;;;;;7.70;5.70;;;9.90;99.90;;;;;;5068693;28;20182;-74
2023/01/26 07:03:12;;;;;;;7.07;5.17;;;9.90;99.90;;;;;;5068368;28;20183;-74
2023/01/26 07:05:54;;;;;;;;;;;;;;;;;;;;;
2023/01/26 07:08:24;;;;;;;8.13;5.73;;;10.00;99.90;;;;;;5080457;28;20877;-73
2023/01/26 07:10:57;;;;;;;7.60;6.27;;;10.10;99.90;;;;;;5065113;28;20227;-73
2023/01/26 07:13:30;;;;;;;8.10;6.13;;;10.30;99.90;;;;;;5068603;28;20194;-74
2023/01/26 07:16:12;;;;;;;8.37;6.20;;;10.40;99.90;;;;;;5066280;28;20206;-73
2023/01/26 07:18:53;;;;;;;10.03;5.80;;;10.60;99.90;;;;;;5067929;28;20190;-74
2023/01/26 07:21:28;;;;;;;7.97;5.90;;;10.80;99.90;;;;;;5050915;28;20718;-74
2023/01/26 07:23:55;;;;;;;11.23;6.37;;;10.90;99.90;;;;;;5085099;28;20190;-74
2023/01/26 07:26:26;;;;;;;9.43;6.20;;;10.90;99.90;;;;;;5076596;28;20187;-73
2023/01/26 07:28:56;;;;;;;9.33;6.33;;;10.80;99.90;;;;;;5076547;28;20799;-74
2023/01/26 07:31:23;;;;;;;8.40;6.30;;;10.90;99.90;;;;;;5046971;28;20301;-73
2023/01/26 07:33:56;;;;;;;7.40;5.97;;;10.90;99.90;;;;;;5067898;28;20198;-73
2023/01/26 07:36:25;;;;;;;10.57;6.70;;;10.90;99.90;;;;;;5064762;28;20277;-74
2023/01/26 08:03:29;;;;;;;11.13;7.73;;;11.60;99.90;;;;;;5054188;28;20183;-73
2023/01/26 08:05:57;;;;;;;10.27;7.50;;;11.60;99.90;;;;;;5079349;28;20698;-74
2023/01/26 08:08:27;;;;;;;12.77;7.90;;;11.70;99.90;;;;;;5066639;28;20218;-74
2023/01/26 08:11:02;;;;;;;11.27;7.23;;;11.60;99.90;;;;;;5047287;28;20222;-74
2023/01/26 08:13:30;;;;;;;11.50;7.37;;;11.60;99.90;;;;;;5063723;28;20209;-74
2023/01/26 08:16:11;;;;;;;12.27;7.63;;;11.60;99.90;;;;;;5054578;28;20215;-73
2023/01/26 08:18:45;;;;;;;11.13;7.63;;;11.70;99.90;;;;;;5052583;28;20197;-73
2023/01/26 08:21:15;;;;;;;9.80;6.20;;;11.70;99.90;;;;;;5055468;28;20184;-74
2023/01/26 08:23:47;;;;;;;7.03;6.07;;;11.70;99.90;;;;;;5042184;28;20191;-73
2023/01/26 08:26:16;;;;;;;7.53;5.30;;;11.80;99.90;;;;;;5030357;28;20183;-73
2023/01/26 08:28:44;;;;;;;7.10;5.27;;;11.80;99.90;;;;;;5047851;28;20187;-73
2023/01/26 08:31:19;;;;;;;12.20;5.97;;;11.80;99.90;;;;;;5038748;28;20203;-74
2023/01/26 08:33:50;;;;;;;8.97;5.50;;;11.80;99.90;;;;;;5066468;28;20274;-74
2023/01/26 08:36:18;;;;;;;8.73;5.77;;;11.90;99.90;;;;;;5060158;28;20229;-73
2023/01/26 08:38:46;;;;;;;8.23;6.03;;;11.90;99.90;;;;;;5076291;28;20183;-74
2023/01/26 08:41:16;;;;;;;7.87;6.53;;;12.00;99.90;;;;;;5054389;28;20628;-73
2023/01/26 08:43:43;;;;;;;8.70;6.90;;;12.00;99.90;;;;;;5059060;28;20190;-74
2023/01/26 08:46:11;;;;;;;13.07;7.10;;;12.00;99.90;;;;;;5065185;28;20213;-74
2023/01/26 08:48:38;;;;;;;14.53;7.27;;;12.10;99.90;;;;;;5055236;28;20812;-73
2023/01/26 08:51:08;;;;;;;9.67;7.67;;;12.20;99.90;;;;;;5066344;28;20194;-73
2023/01/26 08:53:37;;;;;;;11.83;7.97;;;12.40;99.90;;;;;;5076798;28;20318;-74
2023/01/26 08:56:09;;;;;;;12.60;8.30;;;12.50;99.90;;;;;;5044936;28;20211;-74
2023/01/26 08:58:41;;;;;;;9.97;8.10;;;12.50;99.90;;;;;;5051795;28;20320;-74
2023/01/26 09:01:12;;;;;;;12.47;8.10;;;12.60;99.90;;;;;;5073686;28;20235;-73
2023/01/26 09:03:39;;;;;;;12.07;8.57;;;12.70;99.90;;;;;;5069157;28;20187;-73
2023/01/26 09:06:09;;;;;;;10.23;7.57;;;12.80;99.90;;;;;;5063427;28;20206;-74
2023/01/26 09:08:37;;;;;;;9.27;7.67;;;12.80;99.90;;;;;;5076406;28;20193;-73
2023/01/26 09:11:08;;;;;;;11.67;8.13;;;12.90;99.90;;;;;;5049983;28;20193;-74
2023/01/26 09:13:37;;;;;;;10.27;7.90;;;13.00;99.90;;;;;;5065071;28;20839;-73
2023/01/26 09:16:19;;;;;;;9.80;7.43;;;13.00;99.90;;;;;;5067421;28;20202;-73
2023/01/26 09:18:50;;;;;;;12.03;7.23;;;13.10;99.90;;;;;;5052420;28;20193;-73
2023/01/26 09:21:19;;;;;;;14.33;8.40;;;13.10;99.90;;;;;;5066770;28;20196;-73
2023/01/26 09:23:46;;;;;;;10.53;7.23;;;13.00;99.90;;;;;;5063284;28;20201;-73
2023/01/26 09:26:14;;;;;;;11.20;7.60;;;13.10;99.90;;;;;;5070482;28;20199;-74
2023/01/26 09:28:41;;;;;;;11.83;7.83;;;13.20;99.90;;;;;;5069438;28;20201;-74
2023/01/26 09:31:11;;;;;;;11.67;6.77;;;13.30;99.90;;;;;;5054203;28;20730;-74
2023/01/26 09:33:38;;;;;;;8.13;5.73;;;13.30;99.90;;;;;;5053180;28;20195;-74
2023/01/26 09:36:09;;;;;;;10.73;6.40;;;13.40;99.90;;;;;;5052719;28;20206;-74
2023/01/26 09:38:37;;;;;;;11.30;6.17;;;13.50;99.90;;;;;;5083981;28;20199;-73
2023/01/26 09:41:32;;;;;;;7.60;5.27;;;13.60;99.90;;;;;;5052419;28;20931;-74
2023/01/26 09:44:10;;;;;;;8.77;6.30;;;13.70;99.90;;;;;;5063002;28;20187;-74
2023/01/26 09:47:09;;;;;;;6.47;5.23;;;13.70;99.90;;;;;;5053889;28;20190;-74
2023/01/26 09:49:59;;;;;;;9.57;5.50;;;13.80;99.90;;;;;;5063452;28;20202;-74
2023/01/26 09:52:35;;;;;;;8.30;5.23;;;13.80;99.90;;;;;;5073166;28;20697;-74
2023/01/26 09:55:18;;;;;;;8.37;5.77;;;13.80;99.90;;;;;;5076841;28;20218;-74
2023/01/26 09:58:24;;;;;;;8.27;5.10;;;13.80;99.90;;;;;;5049121;28;20197;-74
2023/01/26 10:01:06;;;;;;;8.07;5.33;;;13.90;99.90;;;;;;5060812;28;20680;-74
2023/01/26 10:03:56;;;;;;;9.60;5.90;;;13.90;99.90;;;;;;5067867;28;20916;-74
2023/01/26 10:06:30;;;;;;;7.67;5.87;;;14.00;99.90;;;;;;5056291;28;20205;-73
2023/01/26 10:09:24;;;;;;;9.93;6.30;;;14.00;99.90;;;;;;5073020;28;20337;-74
2023/01/26 10:11:59;;;;;;;9.87;6.20;;;14.10;99.90;;;;;;5065779;28;22192;-74
2023/01/26 10:14:41;;;;;;;10.03;6.40;;;14.10;99.90;;;;;;5055177;28;20232;-74
2023/01/26 10:17:38;;;;;;;9.53;6.10;;;14.10;99.90;;;;;;5069125;28;20899;-74
2023/01/26 10:20:06;;;;;;;11.10;6.00;;;14.20;99.90;;;;;;5070155;28;20533;-74
2023/01/26 10:22:53;;;;;;;9.73;6.23;;;14.20;99.90;;;;;;5055845;28;20265;-74
2023/01/26 10:25:45;;;;;;;9.53;6.10;;;14.10;99.90;;;;;;5052352;28;20191;-74
2023/01/26 10:28:15;;;;;;;10.57;6.33;;;14.10;99.90;;;;;;5050546;28;20202;-74
2023/01/26 10:30:45;;;;;;;7.50;6.27;;;14.20;99.90;;;;;;5064981;28;20186;-74
2023/01/26 10:33:26;;;;;;;9.93;6.27;;;14.40;99.90;;;;;;5063143;28;20195;-74
2023/01/26 10:35:55;;;;;;;11.00;6.60;;;14.40;99.90;;;;;;5057439;28;20746;-73
2023/01/26 10:38:36;;;;;;;8.17;5.83;;;14.50;99.90;;;;;;5056517;28;20238;-74
2023/01/26 10:41:33;;;;;;;8.30;5.60;;;14.60;99.90;;;;;;5061329;28;20218;-74
2023/01/26 10:44:34;;;;;;;9.17;5.70;;;14.80;99.90;;;;;;5071673;28;20225;-73
2023/01/26 10:47:20;;;;;;;11.50;6.67;;;14.90;99.90;;;;;;5058953;28;20196;-74
2023/01/26 10:49:48;;;;;;;11.07;6.73;;;15.00;99.90;;;;;;5055498;28;20230;-74
2023/01/26 10:52:20;;;;;;;7.40;6.20;;;15.10;99.90;;;;;;5064722;28;20245;-74
2023/01/26 10:55:07;;;;;;;7.40;6.07;;;15.20;99.90;;;;;;5064827;28;20721;-74
2023/01/26 10:57:42;;;;;;;9.57;6.33;;;15.50;99.90;;;;;;5065895;28;20199;-74
2023/01/26 11:00:33;;;;;;;7.97;5.77;;;15.70;99.90;;;;;;5058579;28;20191;-74
2023/01/26 11:03:18;;;;;;;10.87;6.03;;;15.60;99.90;;;;;;5063726;28;20195;-74
2023/01/26 11:06:03;;;;;;;9.10;6.20;;;15.40;99.90;;;;;;5062035;28;20548;-74
2023/01/26 11:08:37;;;;;;;7.23;6.17;;;15.30;99.90;;;;;;5063236;28;20244;-74
2023/01/26 11:11:09;;;;;;;7.43;6.37;;;15.30;99.90;;;;;;5061096;28;20190;-74
2023/01/26 11:13:36;;;;;;;8.40;7.30;;;15.30;99.90;;;;;;5067341;28;20203;-74
2023/01/26 11:16:11;;;;;;;10.70;7.60;;;15.50;99.90;;;;;;5063833;28;20773;-73
2023/01/26 11:18:57;;;;;;;9.77;6.83;;;15.60;99.90;;;;;;5066997;28;20226;-74
2023/01/26 11:22:19;;;;;;;10.23;7.07;;;15.60;99.90;;;;;;5080453;28;20809;-74
2023/01/26 11:25:03;;;;;;;12.97;7.00;;;15.60;99.90;;;;;;5057225;28;20283;-74
2023/01/26 11:27:36;;;;;;;11.43;6.80;;;15.90;99.90;;;;;;5063277;28;20272;-74
2023/01/26 11:30:41;;;;;;;9.07;7.93;;;15.80;99.90;;;;;;5057734;28;20198;-74
2023/01/26 11:33:34;;;;;;;10.33;7.50;;;15.80;99.90;;;;;;5058397;28;20194;-74
2023/01/26 11:36:25;;;;;;;10.50;7.93;;;15.80;99.90;;;;;;5041331;28;20225;-74
2023/01/26 11:39:33;;;;;;;13.40;7.60;;;15.50;99.90;;;;;;5038987;28;20208;-74
2023/01/26 11:42:26;;;;;;;9.23;8.20;;;15.50;99.90;;;;;;5073149;28;20236;-74
2023/01/26 11:45:20;;;;;;;14.83;7.87;;;15.60;99.90;;;;;;5055137;28;20194;-74
2023/01/26 11:48:37;;;;;;;8.53;7.60;;;15.60;99.90;;;;;;5043387;28;20661;-74
2023/01/26 11:51:50;;;;;;;11.63;8.23;;;15.70;99.90;;;;;;4984622;28;20189;-74
2023/01/26 11:54:49;;;;;;;11.83;8.63;;;15.70;99.90;;;;;;5053891;28;20202;-74
2023/01/26 11:57:27;;;;;;;10.13;8.57;;;15.70;99.90;;;;;;5065551;28;20222;-74
2023/01/26 12:00:12;;;;;;;14.70;8.17;;;15.70;99.90;;;;;;5059454;28;20186;-74
2023/01/26 12:02:43;;;;;;;13.13;8.97;;;15.60;99.90;;;;;;5054891;28;20179;-74
2023/01/26 12:05:24;;;;;;;13.87;10.07;;;15.70;99.90;;;;;;5051847;28;20179;-74
2023/01/26 12:08:15;;;;;;;10.90;8.57;;;15.70;99.90;;;;;;5053070;28;20668;-74
2023/01/26 12:11:25;;;;;;;12.53;8.33;;;15.60;99.90;;;;;;5063333;28;20255;-74
2023/01/26 12:14:31;;;;;;;9.70;8.70;;;15.60;99.90;;;;;;5065261;28;20213;-74
2023/01/26 12:17:50;;;;;;;11.07;8.77;;;15.50;99.90;;;;;;5038278;28;20191;-74
2023/01/26 12:21:02;;;;;;;14.60;8.50;;;15.60;99.90;;;;;;5060156;28;20199;-74
2023/01/26 12:24:01;;;;;;;10.30;8.30;;;15.60;99.90;;;;;;5044378;28;20190;-74
2023/01/26 12:26:52;;;;;;;9.23;8.00;;;15.60;99.90;;;;;;5034557;28;20282;-74
2023/01/26 12:29:51;;;;;;;11.63;9.23;;;15.60;99.90;;;;;;5056877;28;20237;-74
2023/01/26 12:32:18;;;;;;;11.80;8.57;;;15.60;99.90;;;;;;5065786;28;20179;-74
2023/01/26 12:34:44;;;;;;;12.83;8.60;;;15.60;99.90;;;;;;5062825;28;20185;-74
2023/01/26 12:37:45;;;;;;;12.50;8.33;;;15.50;99.90;;;;;;5062001;28;20194;-74
2023/01/26 12:40:48;;;;;;;16.03;9.60;;;15.40;99.90;;;;;;5052599;28;20237;-74
2023/01/26 12:43:57;;;;;;;13.03;9.70;;;15.40;99.90;;;;;;5042577;28;20587;-74
2023/01/26 12:46:28;;;;;;;16.53;10.37;;;15.40;99.90;;;;;;5043363;28;20195;-74
2023/01/26 12:49:53;;;;;;;14.53;10.27;;;15.40;99.90;;;;;;5063536;28;20240;-74
2023/01/26 12:52:36;;;;;;;12.13;9.53;;;15.40;99.90;;;;;;5045897;28;20199;-74
2023/01/26 12:55:35;;;;;;;12.07;9.50;;;15.50;99.90;;;;;;5060043;28;20711;-74
2023/01/26 12:58:13;;;;;;;12.73;8.67;;;15.40;99.90;;;;;;5052041;28;20259;-74
2023/01/26 13:00:50;;;;;;;13.07;9.00;;;15.40;99.90;;;;;;5059383;28;20187;-74
2023/01/26 13:03:37;;;;;;;12.23;8.47;;;15.40;99.90;;;;;;5041597;28;20182;-74
2023/01/26 13:06:09;;;;;;;10.53;8.37;;;15.40;99.90;;;;;;5052026;28;20252;-74
2023/01/26 13:08:39;;;;;;;11.23;9.47;;;15.30;99.90;;;;;;5057527;28;20667;-74
2023/01/26 13:11:08;;;;;;;11.73;8.20;;;15.30;99.90;;;;;;5043678;28;20190;-73
2023/01/26 13:13:56;;;;;;;13.27;9.07;;;15.30;99.90;;;;;;5066765;28;20582;-74
2023/01/26 13:16:22;;;;;;;10.80;9.37;;;15.30;99.90;;;;;;5062316;28;20214;-74
2023/01/26 13:18:59;;;;;;;14.23;9.50;;;15.20;99.90;;;;;;5044168;28;20179;-74
2023/01/26 13:21:37;;;;;;;11.57;9.43;;;15.10;99.90;;;;;;5067382;28;20200;-74
2023/01/26 13:24:23;;;;;;;11.57;9.33;;;15.10;99.90;;;;;;5064397;28;20225;-74
2023/01/26 13:26:59;;;;;;;14.00;9.33;;;15.10;99.90;;;;;;5062702;28;20804;-74
2023/01/26 13:29:34;;;;;;;15.50;8.87;;;15.00;99.90;;;;;;5038171;28;20640;-74
2023/01/26 13:32:12;;;;;;;13.90;8.10;;;14.90;99.90;;;;;;5055821;28;20702;-74
2023/01/26 13:34:53;;;;;;;14.83;9.63;;;14.80;99.90;;;;;;5055778;28;20193;-74
2023/01/26 13:37:43;;;;;;;15.73;9.90;;;14.80;99.90;;;;;;5047197;28;20183;-74
2023/01/26 13:40:25;;;;;;;13.37;10.57;;;14.80;99.90;;;;;;5065832;28;20232;-74
2023/01/26 13:43:24;;;;;;;16.93;10.77;;;14.70;99.90;;;;;;5066135;28;20186;-74
2023/01/26 13:46:21;;;;;;;16.43;11.10;;;14.70;99.90;;;;;;5056649;28;20201;-74
2023/01/26 13:48:56;;;;;;;15.67;11.77;;;14.60;99.90;;;;;;5053221;28;20255;-74
2023/01/26 13:51:34;;;;;;;15.47;12.27;;;14.50;99.90;;;;;;5074842;28;20525;-74
2023/01/26 13:54:05;;;;;;;16.33;11.70;;;14.50;99.90;;;;;;5087743;28;20546;-74
2023/01/26 13:57:02;;;;;;;15.37;11.23;;;14.50;99.90;;;;;;5048900;28;20254;-74
2023/01/26 13:59:50;;;;;;;14.30;11.23;;;14.50;99.90;;;;;;5065245;28;20175;-74
2023/01/26 14:02:37;;;;;;;13.97;10.83;;;14.40;99.90;;;;;;5050154;28;20179;-74
2023/01/26 14:05:22;;;;;;;13.03;10.30;;;14.40;99.90;;;;;;5055118;28;20568;-74
2023/01/26 14:07:49;;;;;;;13.27;10.70;;;14.30;99.90;;;;;;5083645;28;20194;-74
2023/01/26 14:10:26;;;;;;;12.97;10.23;;;14.30;99.90;;;;;;5090017;28;20191;-74
2023/01/26 14:13:04;;;;;;;16.47;12.73;;;14.30;99.90;;;;;;5071697;28;20175;-74
2023/01/26 14:15:38;;;;;;;17.03;12.73;;;14.20;99.90;;;;;;5062853;28;20202;-74
2023/01/26 14:18:12;;;;;;;13.77;11.07;;;14.20;99.90;;;;;;5065545;28;20198;-74
2023/01/26 14:20:40;;;;;;;15.30;11.50;;;14.10;99.90;;;;;;5067915;28;20189;-74
2023/01/26 14:23:30;;;;;;;17.87;13.60;;;14.10;99.90;;;;;;5079501;28;20213;-74
2023/01/26 14:26:25;;;;;;;17.87;12.90;;;14.00;99.90;;;;;;5069353;28;20305;-74
2023/01/26 14:28:52;;;;;;;15.80;13.17;;;14.00;99.90;;;;;;5068198;28;20199;-74
2023/01/26 14:31:34;;;;;;;13.57;11.27;;;14.00;99.90;;;;;;5069236;28;20500;-74
2023/01/26 14:34:07;;;;;;;13.40;11.40;;;13.90;99.90;;;;;;5067214;28;20249;-74
2023/01/26 14:36:38;;;;;;;15.47;12.77;;;13.90;99.90;;;;;;5066316;28;20233;-74
2023/01/26 14:39:21;;;;;;;12.47;11.00;;;13.80;99.90;;;;;;5067227;28;20185;-74
2023/01/26 14:41:50;;;;;;;12.93;11.07;;;13.70;99.90;;;;;;5068971;28;20270;-74
2023/01/26 14:44:16;;;;;;;15.50;11.63;;;13.70;99.90;;;;;;5068341;28;20411;-74
2023/01/26 14:47:02;;;;;;;14.73;11.07;;;13.70;99.90;;;;;;5068993;28;20179;-74
2023/01/26 14:49:59;;;;;;;13.93;10.57;;;13.60;99.90;;;;;;5039349;28;20575;-74
2023/01/26 14:52:45;;;;;;;12.23;10.30;;;13.60;99.90;;;;;;5050080;28;20199;-74